sensor_id;sensor_type;location;lat;lon;timestamp;P1;durP1;ratioP1;P2;durP2;ratioP2
23494;SDS011;26107;50.832;2.950;2024-01-07T00:02:53;1.02;;;0.93;;
23494;SDS011;26107;50.832;2.950;2024-01-07T01:03:00;2.08;;;1.95;;
23494;SDS011;26107;50.832;2.950;2024-01-07T02:03:05;9.48;;;3.03;;
23494;SDS011;26107;50.832;2.950;2024-01-07T02:18:06;2.28;;;2.05;;
23494;SDS011;26107;50.832;2.950;2024-01-07T02:33:11;2.60;;;2.13;;
23494;SDS011;26107;50.832;2.950;2024-01-07T02:48:16;2.90;;;2.33;;
23494;SDS011;26107;50.832;2.950;2024-01-07T03:03:21;5.38;;;2.35;;
23494;SDS011;26107;50.832;2.950;2024-01-07T03:18:22;3.75;;;2.80;;
23494;SDS011;26107;50.832;2.950;2024-01-07T03:33:22;4.72;;;2.60;;
23494;SDS011;26107;50.832;2.950;2024-01-07T03:48:25;3.25;;;2.28;;
23494;SDS011;26107;50.832;2.950;2024-01-07T04:03:26;4.95;;;2.83;;
23494;SDS011;26107;50.832;2.950;2024-01-07T04:18:27;4.45;;;3.15;;
23494;SDS011;26107;50.832;2.950;2024-01-07T04:33:29;7.13;;;4.15;;
23494;SDS011;26107;50.832;2.950;2024-01-07T04:48:30;10.32;;;3.88;;
23494;SDS011;26107;50.832;2.950;2024-01-07T05:03:31;5.55;;;4.50;;
23494;SDS011;26107;50.832;2.950;2024-01-07T05:18:37;9.30;;;5.43;;
23494;SDS011;26107;50.832;2.950;2024-01-07T05:33:50;7.82;;;5.80;;
23494;SDS011;26107;50.832;2.950;2024-01-07T05:48:51;8.35;;;6.15;;
23494;SDS011;26107;50.832;2.950;2024-01-07T06:03:52;8.90;;;6.88;;
23494;SDS011;26107;50.832;2.950;2024-01-07T06:18:52;10.30;;;6.93;;
23494;SDS011;26107;50.832;2.950;2024-01-07T06:33:55;10.20;;;7.43;;
23494;SDS011;26107;50.832;2.950;2024-01-07T06:48:56;9.40;;;7.38;;
23494;SDS011;26107;50.832;2.950;2024-01-07T07:03:56;11.95;;;8.70;;
23494;SDS011;26107;50.832;2.950;2024-01-07T07:19:00;12.63;;;8.25;;
23494;SDS011;26107;50.832;2.950;2024-01-07T07:34:02;12.55;;;9.10;;
23494;SDS011;26107;50.832;2.950;2024-01-07T07:49:04;16.70;;;11.07;;
23494;SDS011;26107;50.832;2.950;2024-01-07T08:04:09;14.95;;;10.82;;
23494;SDS011;26107;50.832;2.950;2024-01-07T08:19:15;19.83;;;13.02;;
23494;SDS011;26107;50.832;2.950;2024-01-07T08:34:15;20.75;;;12.88;;
23494;SDS011;26107;50.832;2.950;2024-01-07T08:49:18;19.95;;;13.02;;
23494;SDS011;26107;50.832;2.950;2024-01-07T09:04:19;18.83;;;13.63;;
23494;SDS011;26107;50.832;2.950;2024-01-07T09:19:19;17.88;;;12.02;;
23494;SDS011;26107;50.832;2.950;2024-01-07T09:34:22;16.83;;;11.98;;
23494;SDS011;26107;50.832;2.950;2024-01-07T09:49:25;17.52;;;12.05;;
23494;SDS011;26107;50.832;2.950;2024-01-07T10:04:29;16.92;;;10.95;;
23494;SDS011;26107;50.832;2.950;2024-01-07T10:19:30;16.90;;;11.15;;
23494;SDS011;26107;50.832;2.950;2024-01-07T10:34:34;14.93;;;9.98;;
23494;SDS011;26107;50.832;2.950;2024-01-07T10:49:35;14.27;;;10.52;;
23494;SDS011;26107;50.832;2.950;2024-01-07T11:04:48;19.17;;;11.93;;
23494;SDS011;26107;50.832;2.950;2024-01-07T11:19:54;15.70;;;9.80;;
23494;SDS011;26107;50.832;2.950;2024-01-07T11:34:56;15.93;;;10.43;;
23494;SDS011;26107;50.832;2.950;2024-01-07T11:50:01;16.58;;;10.45;;
23494;SDS011;26107;50.832;2.950;2024-01-07T12:05:04;15.35;;;10.07;;
23494;SDS011;26107;50.832;2.950;2024-01-07T12:20:05;19.83;;;11.32;;
23494;SDS011;26107;50.832;2.950;2024-01-07T12:35:08;17.02;;;11.40;;
23494;SDS011;26107;50.832;2.950;2024-01-07T12:50:09;13.88;;;9.65;;
23494;SDS011;26107;50.832;2.950;2024-01-07T13:05:12;16.08;;;10.88;;
23494;SDS011;26107;50.832;2.950;2024-01-07T13:20:13;18.60;;;10.93;;
23494;SDS011;26107;50.832;2.950;2024-01-07T13:35:19;15.05;;;9.98;;
23494;SDS011;26107;50.832;2.950;2024-01-07T13:50:22;19.88;;;12.02;;
23494;SDS011;26107;50.832;2.950;2024-01-07T14:05:23;20.40;;;11.13;;
23494;SDS011;26107;50.832;2.950;2024-01-07T14:20:24;16.80;;;11.18;;
23494;SDS011;26107;50.832;2.950;2024-01-07T14:35:24;19.58;;;11.35;;
23494;SDS011;26107;50.832;2.950;2024-01-07T14:50:32;19.83;;;12.15;;
23494;SDS011;26107;50.832;2.950;2024-01-07T15:05:33;15.82;;;10.75;;
23494;SDS011;26107;50.832;2.950;2024-01-07T15:20:34;13.18;;;10.15;;
23494;SDS011;26107;50.832;2.950;2024-01-07T15:35:35;14.00;;;9.70;;
23494;SDS011;26107;50.832;2.950;2024-01-07T15:50:38;14.77;;;9.95;;
23494;SDS011;26107;50.832;2.950;2024-01-07T16:05:38;13.95;;;8.68;;
23494;SDS011;26107;50.832;2.950;2024-01-07T16:20:39;13.60;;;9.15;;
23494;SDS011;26107;50.832;2.950;2024-01-07T16:35:40;16.55;;;9.18;;
23494;SDS011;26107;50.832;2.950;2024-01-07T16:50:43;12.75;;;8.98;;
23494;SDS011;26107;50.832;2.950;2024-01-07T17:05:46;14.10;;;9.10;;
23494;SDS011;26107;50.832;2.950;2024-01-07T17:20:47;10.20;;;7.43;;
23494;SDS011;26107;50.832;2.950;2024-01-07T17:35:49;10.00;;;6.18;;
23494;SDS011;26107;50.832;2.950;2024-01-07T17:50:55;6.43;;;5.25;;
23494;SDS011;26107;50.832;2.950;2024-01-07T18:06:02;7.47;;;4.10;;
23494;SDS011;26107;50.832;2.950;2024-01-07T18:21:04;4.63;;;4.07;;
23494;SDS011;26107;50.832;2.950;2024-01-07T18:36:07;4.05;;;3.65;;
23494;SDS011;26107;50.832;2.950;2024-01-07T18:51:08;6.13;;;4.30;;
23494;SDS011;26107;50.832;2.950;2024-01-07T19:06:14;5.05;;;3.65;;
23494;SDS011;26107;50.832;2.950;2024-01-07T19:21:17;3.97;;;2.95;;
23494;SDS011;26107;50.832;2.950;2024-01-07T19:36:18;2.67;;;2.28;;
23494;SDS011;26107;50.832;2.950;2024-01-07T19:51:22;4.05;;;2.97;;
23494;SDS011;26107;50.832;2.950;2024-01-07T20:06:23;2.97;;;2.67;;
23494;SDS011;26107;50.832;2.950;2024-01-07T20:21:25;3.42;;;2.58;;
23494;SDS011;26107;50.832;2.950;2024-01-07T20:36:26;5.82;;;2.85;;
23494;SDS011;26107;50.832;2.950;2024-01-07T20:51:28;4.03;;;2.33;;
23494;SDS011;26107;50.832;2.950;2024-01-07T21:06:29;2.60;;;2.38;;
23494;SDS011;26107;50.832;2.950;2024-01-07T21:37:27;3.47;;;2.30;;
23494;SDS011;26107;50.832;2.950;2024-01-07T21:52:28;3.63;;;3.03;;
23494;SDS011;26107;50.832;2.950;2024-01-07T22:07:30;4.80;;;3.47;;
23494;SDS011;26107;50.832;2.950;2024-01-07T22:38:30;5.00;;;3.63;;
23494;SDS011;26107;50.832;2.950;2024-01-07T22:53:31;5.40;;;4.20;;
23494;SDS011;26107;50.832;2.950;2024-01-07T23:08:33;7.43;;;4.22;;
23494;SDS011;26107;50.832;2.950;2024-01-07T23:39:30;5.15;;;4.15;;
23494;SDS011;26107;50.832;2.950;2024-01-07T23:54:31;5.45;;;4.25;;
